Anchor Point, AK (99556)

10:16 AM AKDT on May 24, 2017 (GMT -0800)
Wilderness Greenhouse | | Change Station

Elev 335 ft 59.72 °N, 151.72 °W | Updated 28 seconds ago

Overcast
Overcast
47.5 °F
Feels Like 48 °F
N
2.0
Wind Variable Wind from South

Today
High -- | Low -- °F
--% Chance of Precip.
Yesterday
High -- | Low -- °F
Precip. -- in
Pressure 29.93 in
Visibility 10.0 miles
Clouds Overcast 4300 ft
Windchill 48 °F
Dew Point 42 °F
Humidity 83%
Rainfall 0.30 in
Snow Depth Not available.
5:11 AM 10:58 PM
Waning Crescent, 2% visible
METAR PAHO 241753Z 17007KT 10SM -RA OVC043 11/05 A2993 RMK RAB43 SLP135 P0000 60015 T01110050 10111 20078 50000 VIA AUTODIAL
Pressure 29.93 in
Visibility 10.0 miles
Clouds Overcast 4300 ft
Windchill 48 °F
Dew Point 42 °F
Humidity 83%
Rainfall 0.30 in
Snow Depth Not available.
5:11 AM 10:58 PM
Waning Crescent, 2% visible
METAR PAHO 241753Z 17007KT 10SM -RA OVC043 11/05 A2993 RMK RAB43 SLP135 P0000 60015 T01110050 10111 20078 50000 VIA AUTODIAL

Get Severe Weather Alerts

Thanks for signing up!

Be on the lookout for a verification email in your inbox.

You'll start receiving the daily forecast at 6 AM.

×

10-Day Weather Forecast

Almanac

Astronomy

May. 24, 2017 Rise Set
Actual Time
Civil Twilight
Nautical Twilight
Astronomical Twilight
Moon
Length of Visible Light
Length of Day
Tomorrow will be .
, % of the Moon is Illuminated

Today's Extremes

State Highs State Lows

Community

WunderPhotos

Category 6

Welcome to Category 6. This is the collective home for Weather Underground's featured writeups by Dr. Jeff Masters (right), Bob Henson (left), Chris Burt, and other regular contributors.

Nearby

Air Quality

  Air Quality AQ Index Pollutant
Not available.

Snow Depth

Station Depth Elevation

Earthquake Activity

City Distance Mag. Time & Date
Minimum magnitude displayed is 2.5.

Coastal Water Temperatures

Place Temperature

Stations

Nearby Weather Stations

Station Location Temp. Windchill Dew Point Humidity Wind Precip. Elev Updated Type
                   

Watches & Warnings

There are currently no watches in effect.